sensor_id;sensor_type;location;lat;lon;timestamp;P1;durP1;ratioP1;P2;durP2;ratioP2
83326;SDS011;73250;55.594;13.020;2024-02-26T00:01:02;9.88;;;7.70;;
83326;SDS011;73250;55.594;13.020;2024-02-26T00:03:30;10.43;;;7.13;;
83326;SDS011;73250;55.594;13.020;2024-02-26T00:06:00;8.40;;;7.07;;
83326;SDS011;73250;55.594;13.020;2024-02-26T00:08:27;8.80;;;6.70;;
83326;SDS011;73250;55.594;13.020;2024-02-26T00:10:54;7.68;;;6.40;;
83326;SDS011;73250;55.594;13.020;2024-02-26T00:13:21;8.57;;;7.00;;
83326;SDS011;73250;55.594;13.020;2024-02-26T00:15:47;8.15;;;6.65;;
83326;SDS011;73250;55.594;13.020;2024-02-26T00:18:14;8.13;;;7.15;;
83326;SDS011;73250;55.594;13.020;2024-02-26T00:20:42;8.20;;;6.82;;
83326;SDS011;73250;55.594;13.020;2024-02-26T00:23:09;8.40;;;6.75;;
83326;SDS011;73250;55.594;13.020;2024-02-26T00:25:36;7.60;;;6.68;;
83326;SDS011;73250;55.594;13.020;2024-02-26T00:28:03;8.85;;;7.07;;
83326;SDS011;73250;55.594;13.020;2024-02-26T00:30:30;9.38;;;6.72;;
83326;SDS011;73250;55.594;13.020;2024-02-26T00:32:57;6.82;;;6.10;;
83326;SDS011;73250;55.594;13.020;2024-02-26T00:35:24;9.73;;;7.30;;
83326;SDS011;73250;55.594;13.020;2024-02-26T00:37:52;8.95;;;6.85;;
83326;SDS011;73250;55.594;13.020;2024-02-26T00:40:19;7.68;;;6.43;;
83326;SDS011;73250;55.594;13.020;2024-02-26T00:42:45;7.80;;;6.43;;
83326;SDS011;73250;55.594;13.020;2024-02-26T00:45:13;8.93;;;7.28;;
83326;SDS011;73250;55.594;13.020;2024-02-26T00:47:41;8.13;;;6.32;;
83326;SDS011;73250;55.594;13.020;2024-02-26T00:50:09;8.18;;;7.00;;
83326;SDS011;73250;55.594;13.020;2024-02-26T00:52:36;9.65;;;7.25;;
83326;SDS011;73250;55.594;13.020;2024-02-26T00:55:04;9.07;;;6.93;;
83326;SDS011;73250;55.594;13.020;2024-02-26T00:57:32;7.85;;;6.57;;
83326;SDS011;73250;55.594;13.020;2024-02-26T00:59:59;8.50;;;6.93;;
83326;SDS011;73250;55.594;13.020;2024-02-26T01:02:26;7.60;;;6.60;;
83326;SDS011;73250;55.594;13.020;2024-02-26T01:04:52;7.85;;;6.53;;
83326;SDS011;73250;55.594;13.020;2024-02-26T01:07:19;10.63;;;8.20;;
83326;SDS011;73250;55.594;13.020;2024-02-26T01:09:46;9.07;;;7.05;;
83326;SDS011;73250;55.594;13.020;2024-02-26T01:12:14;7.57;;;5.88;;
83326;SDS011;73250;55.594;13.020;2024-02-26T01:14:41;8.15;;;6.72;;
83326;SDS011;73250;55.594;13.020;2024-02-26T01:17:07;9.60;;;7.10;;
83326;SDS011;73250;55.594;13.020;2024-02-26T01:19:34;8.45;;;6.95;;
83326;SDS011;73250;55.594;13.020;2024-02-26T01:22:01;8.52;;;7.13;;
83326;SDS011;73250;55.594;13.020;2024-02-26T01:24:28;8.77;;;7.05;;
83326;SDS011;73250;55.594;13.020;2024-02-26T01:26:55;7.72;;;6.45;;
83326;SDS011;73250;55.594;13.020;2024-02-26T01:29:23;8.80;;;7.50;;
83326;SDS011;73250;55.594;13.020;2024-02-26T01:31:49;8.90;;;7.28;;
83326;SDS011;73250;55.594;13.020;2024-02-26T01:34:20;7.45;;;6.28;;
83326;SDS011;73250;55.594;13.020;2024-02-26T01:36:46;8.60;;;7.05;;
83326;SDS011;73250;55.594;13.020;2024-02-26T01:39:13;9.10;;;7.25;;
83326;SDS011;73250;55.594;13.020;2024-02-26T01:41:40;7.63;;;6.63;;
83326;SDS011;73250;55.594;13.020;2024-02-26T01:44:07;9.45;;;8.20;;
83326;SDS011;73250;55.594;13.020;2024-02-26T01:46:35;11.18;;;7.32;;
83326;SDS011;73250;55.594;13.020;2024-02-26T01:49:02;8.38;;;6.63;;
83326;SDS011;73250;55.594;13.020;2024-02-26T01:51:29;10.00;;;7.18;;
83326;SDS011;73250;55.594;13.020;2024-02-26T01:53:57;8.68;;;7.15;;
83326;SDS011;73250;55.594;13.020;2024-02-26T01:56:25;7.90;;;6.38;;
83326;SDS011;73250;55.594;13.020;2024-02-26T01:58:55;8.65;;;7.00;;
83326;SDS011;73250;55.594;13.020;2024-02-26T02:01:24;8.93;;;6.60;;
83326;SDS011;73250;55.594;13.020;2024-02-26T02:03:55;10.55;;;7.30;;
83326;SDS011;73250;55.594;13.020;2024-02-26T02:06:24;8.15;;;7.10;;
83326;SDS011;73250;55.594;13.020;2024-02-26T02:08:51;9.07;;;6.65;;
83326;SDS011;73250;55.594;13.020;2024-02-26T02:11:19;8.60;;;7.15;;
83326;SDS011;73250;55.594;13.020;2024-02-26T02:13:45;9.90;;;7.00;;
83326;SDS011;73250;55.594;13.020;2024-02-26T02:16:12;8.00;;;6.60;;
83326;SDS011;73250;55.594;13.020;2024-02-26T02:18:39;8.50;;;7.32;;
83326;SDS011;73250;55.594;13.020;2024-02-26T02:21:07;7.53;;;6.60;;
83326;SDS011;73250;55.594;13.020;2024-02-26T02:23:34;7.93;;;6.45;;
83326;SDS011;73250;55.594;13.020;2024-02-26T02:26:00;9.27;;;7.30;;
83326;SDS011;73250;55.594;13.020;2024-02-26T02:28:27;6.75;;;5.85;;
83326;SDS011;73250;55.594;13.020;2024-02-26T02:30:54;7.55;;;6.28;;
83326;SDS011;73250;55.594;13.020;2024-02-26T02:33:22;8.80;;;6.75;;
83326;SDS011;73250;55.594;13.020;2024-02-26T02:35:50;8.43;;;6.40;;
83326;SDS011;73250;55.594;13.020;2024-02-26T02:38:20;8.32;;;6.68;;
83326;SDS011;73250;55.594;13.020;2024-02-26T02:40:48;8.10;;;6.35;;
83326;SDS011;73250;55.594;13.020;2024-02-26T02:43:15;7.47;;;6.68;;
83326;SDS011;73250;55.594;13.020;2024-02-26T02:45:42;8.02;;;6.57;;
83326;SDS011;73250;55.594;13.020;2024-02-26T02:48:08;8.73;;;6.90;;
83326;SDS011;73250;55.594;13.020;2024-02-26T02:50:36;7.32;;;6.50;;
83326;SDS011;73250;55.594;13.020;2024-02-26T02:53:03;8.48;;;6.38;;
83326;SDS011;73250;55.594;13.020;2024-02-26T02:55:31;8.57;;;7.32;;
83326;SDS011;73250;55.594;13.020;2024-02-26T02:57:58;8.95;;;7.38;;
83326;SDS011;73250;55.594;13.020;2024-02-26T03:00:25;7.70;;;6.53;;
83326;SDS011;73250;55.594;13.020;2024-02-26T03:02:52;8.70;;;7.20;;
83326;SDS011;73250;55.594;13.020;2024-02-26T03:05:18;8.55;;;7.35;;
83326;SDS011;73250;55.594;13.020;2024-02-26T03:07:45;8.98;;;7.20;;
83326;SDS011;73250;55.594;13.020;2024-02-26T03:10:12;8.02;;;6.38;;
83326;SDS011;73250;55.594;13.020;2024-02-26T03:12:40;7.95;;;7.15;;
83326;SDS011;73250;55.594;13.020;2024-02-26T03:15:07;7.10;;;6.40;;
83326;SDS011;73250;55.594;13.020;2024-02-26T03:17:36;9.40;;;7.53;;
83326;SDS011;73250;55.594;13.020;2024-02-26T03:20:03;9.57;;;7.65;;
83326;SDS011;73250;55.594;13.020;2024-02-26T03:22:30;9.45;;;7.20;;
83326;SDS011;73250;55.594;13.020;2024-02-26T03:24:57;10.20;;;7.50;;
83326;SDS011;73250;55.594;13.020;2024-02-26T03:27:24;9.90;;;7.03;;
83326;SDS011;73250;55.594;13.020;2024-02-26T03:29:52;8.65;;;6.93;;
83326;SDS011;73250;55.594;13.020;2024-02-26T03:32:18;9.25;;;7.32;;
83326;SDS011;73250;55.594;13.020;2024-02-26T03:34:45;9.57;;;7.18;;
83326;SDS011;73250;55.594;13.020;2024-02-26T03:37:12;8.63;;;6.82;;
83326;SDS011;73250;55.594;13.020;2024-02-26T03:39:38;8.05;;;7.18;;
83326;SDS011;73250;55.594;13.020;2024-02-26T03:42:05;7.97;;;6.47;;
83326;SDS011;73250;55.594;13.020;2024-02-26T03:44:32;9.05;;;7.28;;
83326;SDS011;73250;55.594;13.020;2024-02-26T03:47:00;7.72;;;6.63;;
83326;SDS011;73250;55.594;13.020;2024-02-26T03:49:27;6.40;;;5.78;;
83326;SDS011;73250;55.594;13.020;2024-02-26T03:51:54;10.00;;;7.35;;
83326;SDS011;73250;55.594;13.020;2024-02-26T03:54:21;8.90;;;7.18;;
83326;SDS011;73250;55.594;13.020;2024-02-26T03:56:48;7.75;;;6.95;;
83326;SDS011;73250;55.594;13.020;2024-02-26T03:59:14;9.55;;;7.20;;
83326;SDS011;73250;55.594;13.020;2024-02-26T04:01:44;8.98;;;7.25;;
83326;SDS011;73250;55.594;13.020;2024-02-26T04:04:13;7.72;;;6.63;;
83326;SDS011;73250;55.594;13.020;2024-02-26T04:06:39;7.82;;;6.60;;
83326;SDS011;73250;55.594;13.020;2024-02-26T04:09:10;11.10;;;7.43;;
83326;SDS011;73250;55.594;13.020;2024-02-26T04:11:36;7.35;;;6.03;;
83326;SDS011;73250;55.594;13.020;2024-02-26T04:14:03;8.93;;;7.28;;
83326;SDS011;73250;55.594;13.020;2024-02-26T04:16:31;9.32;;;7.15;;
83326;SDS011;73250;55.594;13.020;2024-02-26T04:18:57;8.35;;;7.05;;
83326;SDS011;73250;55.594;13.020;2024-02-26T04:21:25;7.55;;;6.63;;
83326;SDS011;73250;55.594;13.020;2024-02-26T04:23:52;7.90;;;7.10;;
83326;SDS011;73250;55.594;13.020;2024-02-26T04:26:20;7.47;;;6.57;;
83326;SDS011;73250;55.594;13.020;2024-02-26T04:28:47;8.82;;;7.47;;
83326;SDS011;73250;55.594;13.020;2024-02-26T04:31:13;9.30;;;7.20;;
83326;SDS011;73250;55.594;13.020;2024-02-26T04:33:40;7.35;;;6.53;;
83326;SDS011;73250;55.594;13.020;2024-02-26T04:36:11;8.40;;;7.03;;
83326;SDS011;73250;55.594;13.020;2024-02-26T04:38:41;8.85;;;7.70;;
83326;SDS011;73250;55.594;13.020;2024-02-26T04:41:08;7.18;;;6.47;;
83326;SDS011;73250;55.594;13.020;2024-02-26T04:43:34;8.90;;;7.13;;
83326;SDS011;73250;55.594;13.020;2024-02-26T04:46:06;8.60;;;7.22;;
83326;SDS011;73250;55.594;13.020;2024-02-26T04:48:33;8.25;;;6.65;;
83326;SDS011;73250;55.594;13.020;2024-02-26T04:50:59;9.07;;;7.90;;
83326;SDS011;73250;55.594;13.020;2024-02-26T04:53:26;10.20;;;8.00;;
83326;SDS011;73250;55.594;13.020;2024-02-26T04:55:54;8.20;;;6.90;;
83326;SDS011;73250;55.594;13.020;2024-02-26T04:58:21;10.50;;;7.75;;
83326;SDS011;73250;55.594;13.020;2024-02-26T05:00:48;9.55;;;7.78;;
83326;SDS011;73250;55.594;13.020;2024-02-26T05:03:15;8.48;;;6.88;;
83326;SDS011;73250;55.594;13.020;2024-02-26T05:05:42;8.85;;;7.10;;
83326;SDS011;73250;55.594;13.020;2024-02-26T05:08:09;9.52;;;7.90;;
83326;SDS011;73250;55.594;13.020;2024-02-26T05:10:36;7.97;;;7.10;;
83326;SDS011;73250;55.594;13.020;2024-02-26T05:13:07;8.80;;;7.30;;
83326;SDS011;73250;55.594;13.020;2024-02-26T05:15:34;8.27;;;6.90;;
83326;SDS011;73250;55.594;13.020;2024-02-26T05:18:00;8.10;;;6.97;;
83326;SDS011;73250;55.594;13.020;2024-02-26T05:20:28;7.90;;;7.10;;
83326;SDS011;73250;55.594;13.020;2024-02-26T05:22:54;9.63;;;7.38;;
83326;SDS011;73250;55.594;13.020;2024-02-26T05:25:23;7.80;;;6.88;;
83326;SDS011;73250;55.594;13.020;2024-02-26T05:27:50;9.15;;;8.00;;
83326;SDS011;73250;55.594;13.020;2024-02-26T05:30:18;8.70;;;6.65;;
83326;SDS011;73250;55.594;13.020;2024-02-26T05:32:45;10.15;;;7.30;;
83326;SDS011;73250;55.594;13.020;2024-02-26T05:35:12;9.05;;;7.50;;
83326;SDS011;73250;55.594;13.020;2024-02-26T05:37:40;8.25;;;6.53;;
83326;SDS011;73250;55.594;13.020;2024-02-26T05:40:07;9.68;;;6.95;;
83326;SDS011;73250;55.594;13.020;2024-02-26T05:42:34;9.35;;;7.32;;
83326;SDS011;73250;55.594;13.020;2024-02-26T05:45:00;8.13;;;6.65;;
83326;SDS011;73250;55.594;13.020;2024-02-26T05:47:32;9.85;;;7.68;;
83326;SDS011;73250;55.594;13.020;2024-02-26T05:49:59;8.57;;;7.30;;
83326;SDS011;73250;55.594;13.020;2024-02-26T05:52:26;9.85;;;7.20;;
83326;SDS011;73250;55.594;13.020;2024-02-26T05:54:52;8.60;;;7.50;;
83326;SDS011;73250;55.594;13.020;2024-02-26T05:57:19;7.70;;;6.60;;
83326;SDS011;73250;55.594;13.020;2024-02-26T05:59:46;8.20;;;7.13;;
83326;SDS011;73250;55.594;13.020;2024-02-26T06:02:12;7.45;;;6.50;;
83326;SDS011;73250;55.594;13.020;2024-02-26T06:04:40;8.32;;;6.85;;
83326;SDS011;73250;55.594;13.020;2024-02-26T06:07:07;9.10;;;7.80;;
83326;SDS011;73250;55.594;13.020;2024-02-26T06:09:34;10.02;;;8.18;;
83326;SDS011;73250;55.594;13.020;2024-02-26T06:12:01;9.05;;;7.53;;
83326;SDS011;73250;55.594;13.020;2024-02-26T06:14:27;10.15;;;7.30;;
83326;SDS011;73250;55.594;13.020;2024-02-26T06:16:54;9.23;;;7.80;;
83326;SDS011;73250;55.594;13.020;2024-02-26T06:19:21;8.85;;;7.95;;
83326;SDS011;73250;55.594;13.020;2024-02-26T06:21:49;10.60;;;7.70;;
83326;SDS011;73250;55.594;13.020;2024-02-26T06:24:16;9.18;;;7.68;;
83326;SDS011;73250;55.594;13.020;2024-02-26T06:26:42;9.35;;;6.95;;
83326;SDS011;73250;55.594;13.020;2024-02-26T06:29:09;8.32;;;7.53;;
83326;SDS011;73250;55.594;13.020;2024-02-26T06:31:36;8.88;;;7.45;;
83326;SDS011;73250;55.594;13.020;2024-02-26T06:34:03;7.45;;;6.75;;
83326;SDS011;73250;55.594;13.020;2024-02-26T06:36:29;11.00;;;8.18;;
83326;SDS011;73250;55.594;13.020;2024-02-26T06:38:59;9.25;;;7.47;;
83326;SDS011;73250;55.594;13.020;2024-02-26T06:41:26;7.72;;;6.90;;
83326;SDS011;73250;55.594;13.020;2024-02-26T06:43:54;10.43;;;7.70;;
83326;SDS011;73250;55.594;13.020;2024-02-26T06:46:21;9.00;;;7.80;;
83326;SDS011;73250;55.594;13.020;2024-02-26T06:48:48;9.38;;;7.40;;
83326;SDS011;73250;55.594;13.020;2024-02-26T06:51:15;8.20;;;7.38;;
83326;SDS011;73250;55.594;13.020;2024-02-26T06:53:42;8.45;;;6.82;;
83326;SDS011;73250;55.594;13.020;2024-02-26T06:56:10;9.70;;;7.78;;
83326;SDS011;73250;55.594;13.020;2024-02-26T06:58:36;9.30;;;7.82;;
83326;SDS011;73250;55.594;13.020;2024-02-26T07:01:03;8.40;;;6.90;;
83326;SDS011;73250;55.594;13.020;2024-02-26T07:03:30;9.32;;;7.40;;
83326;SDS011;73250;55.594;13.020;2024-02-26T07:05:57;9.75;;;7.35;;
83326;SDS011;73250;55.594;13.020;2024-02-26T07:08:24;9.20;;;7.53;;
83326;SDS011;73250;55.594;13.020;2024-02-26T07:10:51;8.95;;;7.55;;
83326;SDS011;73250;55.594;13.020;2024-02-26T07:13:19;11.07;;;7.85;;
83326;SDS011;73250;55.594;13.020;2024-02-26T07:15:46;10.38;;;6.95;;
83326;SDS011;73250;55.594;13.020;2024-02-26T07:18:12;10.30;;;7.63;;
83326;SDS011;73250;55.594;13.020;2024-02-26T07:20:39;8.65;;;6.80;;
83326;SDS011;73250;55.594;13.020;2024-02-26T07:23:06;8.25;;;6.85;;
83326;SDS011;73250;55.594;13.020;2024-02-26T07:25:32;9.10;;;7.60;;
83326;SDS011;73250;55.594;13.020;2024-02-26T07:27:59;9.43;;;7.18;;
83326;SDS011;73250;55.594;13.020;2024-02-26T07:30:27;9.05;;;7.78;;
83326;SDS011;73250;55.594;13.020;2024-02-26T07:32:54;8.75;;;7.88;;
83326;SDS011;73250;55.594;13.020;2024-02-26T07:35:20;8.70;;;7.60;;
83326;SDS011;73250;55.594;13.020;2024-02-26T07:37:47;9.20;;;7.00;;
83326;SDS011;73250;55.594;13.020;2024-02-26T07:40:15;9.45;;;7.95;;
83326;SDS011;73250;55.594;13.020;2024-02-26T07:42:41;9.98;;;7.93;;
83326;SDS011;73250;55.594;13.020;2024-02-26T07:45:09;8.82;;;6.97;;
83326;SDS011;73250;55.594;13.020;2024-02-26T07:47:37;10.18;;;7.65;;
83326;SDS011;73250;55.594;13.020;2024-02-26T07:50:06;8.75;;;7.25;;
83326;SDS011;73250;55.594;13.020;2024-02-26T07:52:33;8.68;;;7.43;;
83326;SDS011;73250;55.594;13.020;2024-02-26T07:55:00;7.72;;;6.88;;
83326;SDS011;73250;55.594;13.020;2024-02-26T07:57:27;9.55;;;8.13;;
83326;SDS011;73250;55.594;13.020;2024-02-26T07:59:53;7.90;;;6.72;;
83326;SDS011;73250;55.594;13.020;2024-02-26T08:02:20;9.02;;;7.78;;
83326;SDS011;73250;55.594;13.020;2024-02-26T08:04:49;7.78;;;6.82;;
83326;SDS011;73250;55.594;13.020;2024-02-26T08:07:16;9.88;;;7.38;;
83326;SDS011;73250;55.594;13.020;2024-02-26T08:09:42;7.72;;;6.82;;
83326;SDS011;73250;55.594;13.020;2024-02-26T08:12:09;9.63;;;7.70;;
83326;SDS011;73250;55.594;13.020;2024-02-26T08:14:36;9.40;;;6.35;;
83326;SDS011;73250;55.594;13.020;2024-02-26T08:17:02;10.60;;;6.70;;
83326;SDS011;73250;55.594;13.020;2024-02-26T08:19:29;9.13;;;6.22;;
83326;SDS011;73250;55.594;13.020;2024-02-26T08:21:57;13.10;;;8.68;;
83326;SDS011;73250;55.594;13.020;2024-02-26T08:24:24;13.93;;;10.20;;
83326;SDS011;73250;55.594;13.020;2024-02-26T08:26:51;19.92;;;15.02;;
83326;SDS011;73250;55.594;13.020;2024-02-26T08:29:18;20.38;;;15.60;;
83326;SDS011;73250;55.594;13.020;2024-02-26T08:31:44;27.60;;;20.55;;
83326;SDS011;73250;55.594;13.020;2024-02-26T08:34:11;23.35;;;19.17;;
83326;SDS011;73250;55.594;13.020;2024-02-26T08:36:38;35.78;;;27.00;;
83326;SDS011;73250;55.594;13.020;2024-02-26T08:39:06;27.42;;;22.40;;
83326;SDS011;73250;55.594;13.020;2024-02-26T08:41:34;33.33;;;24.40;;
83326;SDS011;73250;55.594;13.020;2024-02-26T08:44:00;39.25;;;28.65;;
83326;SDS011;73250;55.594;13.020;2024-02-26T08:46:27;40.03;;;28.40;;
83326;SDS011;73250;55.594;13.020;2024-02-26T08:48:54;46.72;;;32.30;;
83326;SDS011;73250;55.594;13.020;2024-02-26T08:51:20;45.70;;;32.67;;
83326;SDS011;73250;55.594;13.020;2024-02-26T08:53:47;47.08;;;36.03;;
83326;SDS011;73250;55.594;13.020;2024-02-26T08:56:16;61.97;;;44.63;;
83326;SDS011;73250;55.594;13.020;2024-02-26T08:58:43;49.88;;;37.10;;
83326;SDS011;73250;55.594;13.020;2024-02-26T09:01:11;49.10;;;36.78;;
83326;SDS011;73250;55.594;13.020;2024-02-26T09:03:38;57.13;;;40.28;;
83326;SDS011;73250;55.594;13.020;2024-02-26T09:06:05;52.92;;;37.92;;
83326;SDS011;73250;55.594;13.020;2024-02-26T09:08:32;63.15;;;45.75;;
83326;SDS011;73250;55.594;13.020;2024-02-26T09:11:00;46.63;;;38.13;;
83326;SDS011;73250;55.594;13.020;2024-02-26T09:13:29;52.53;;;40.63;;
83326;SDS011;73250;55.594;13.020;2024-02-26T09:15:56;48.25;;;31.88;;
83326;SDS011;73250;55.594;13.020;2024-02-26T09:18:23;46.55;;;34.92;;
83326;SDS011;73250;55.594;13.020;2024-02-26T09:20:50;53.63;;;37.70;;
83326;SDS011;73250;55.594;13.020;2024-02-26T09:23:17;44.95;;;33.80;;
83326;SDS011;73250;55.594;13.020;2024-02-26T09:25:44;44.67;;;32.95;;
83326;SDS011;73250;55.594;13.020;2024-02-26T09:28:11;47.00;;;33.85;;
83326;SDS011;73250;55.594;13.020;2024-02-26T09:30:39;52.38;;;35.50;;
83326;SDS011;73250;55.594;13.020;2024-02-26T09:33:05;48.80;;;38.03;;
83326;SDS011;73250;55.594;13.020;2024-02-26T09:35:32;70.45;;;50.60;;
83326;SDS011;73250;55.594;13.020;2024-02-26T09:37:59;62.08;;;45.92;;
83326;SDS011;73250;55.594;13.020;2024-02-26T09:40:26;43.78;;;33.90;;
83326;SDS011;73250;55.594;13.020;2024-02-26T09:42:53;48.30;;;39.42;;
83326;SDS011;73250;55.594;13.020;2024-02-26T09:45:25;51.78;;;39.08;;
83326;SDS011;73250;55.594;13.020;2024-02-26T09:47:55;55.95;;;42.63;;
83326;SDS011;73250;55.594;13.020;2024-02-26T09:50:22;57.20;;;41.10;;
83326;SDS011;73250;55.594;13.020;2024-02-26T09:52:49;54.92;;;41.70;;
83326;SDS011;73250;55.594;13.020;2024-02-26T09:55:16;55.35;;;38.97;;
83326;SDS011;73250;55.594;13.020;2024-02-26T09:57:44;53.88;;;43.50;;
83326;SDS011;73250;55.594;13.020;2024-02-26T10:00:13;55.80;;;39.67;;
83326;SDS011;73250;55.594;13.020;2024-02-26T10:02:44;53.20;;;41.60;;
83326;SDS011;73250;55.594;13.020;2024-02-26T10:05:14;65.78;;;51.63;;
83326;SDS011;73250;55.594;13.020;2024-02-26T10:07:42;74.45;;;55.17;;
83326;SDS011;73250;55.594;13.020;2024-02-26T10:10:10;54.88;;;43.20;;
83326;SDS011;73250;55.594;13.020;2024-02-26T10:12:37;54.60;;;41.38;;
83326;SDS011;73250;55.594;13.020;2024-02-26T10:15:04;65.68;;;43.95;;
83326;SDS011;73250;55.594;13.020;2024-02-26T10:17:30;92.00;;;58.72;;
83326;SDS011;73250;55.594;13.020;2024-02-26T10:20:11;86.32;;;57.85;;
83326;SDS011;73250;55.594;13.020;2024-02-26T10:22:41;79.10;;;54.17;;
83326;SDS011;73250;55.594;13.020;2024-02-26T10:25:08;59.58;;;44.05;;
83326;SDS011;73250;55.594;13.020;2024-02-26T10:27:35;82.30;;;48.80;;
83326;SDS011;73250;55.594;13.020;2024-02-26T10:30:02;94.82;;;53.95;;
83326;SDS011;73250;55.594;13.020;2024-02-26T10:32:30;99.00;;;57.03;;
83326;SDS011;73250;55.594;13.020;2024-02-26T10:34:57;75.47;;;47.65;;
83326;SDS011;73250;55.594;13.020;2024-02-26T10:37:25;71.63;;;44.55;;
83326;SDS011;73250;55.594;13.020;2024-02-26T10:39:52;70.18;;;46.42;;
83326;SDS011;73250;55.594;13.020;2024-02-26T10:42:19;74.40;;;49.65;;
83326;SDS011;73250;55.594;13.020;2024-02-26T10:44:46;59.13;;;39.83;;
83326;SDS011;73250;55.594;13.020;2024-02-26T10:47:13;78.00;;;50.97;;
83326;SDS011;73250;55.594;13.020;2024-02-26T10:49:45;65.93;;;43.85;;
83326;SDS011;73250;55.594;13.020;2024-02-26T10:52:12;98.85;;;57.35;;
83326;SDS011;73250;55.594;13.020;2024-02-26T10:54:42;115.07;;;61.83;;
83326;SDS011;73250;55.594;13.020;2024-02-26T10:57:14;99.00;;;56.90;;
83326;SDS011;73250;55.594;13.020;2024-02-26T10:59:43;116.95;;;59.38;;
83326;SDS011;73250;55.594;13.020;2024-02-26T11:02:10;146.48;;;73.72;;
83326;SDS011;73250;55.594;13.020;2024-02-26T11:04:39;112.15;;;64.03;;
83326;SDS011;73250;55.594;13.020;2024-02-26T11:07:07;121.40;;;69.45;;
83326;SDS011;73250;55.594;13.020;2024-02-26T11:09:35;115.70;;;69.60;;
83326;SDS011;73250;55.594;13.020;2024-02-26T11:12:08;100.07;;;62.22;;
83326;SDS011;73250;55.594;13.020;2024-02-26T11:14:38;89.90;;;59.35;;
83326;SDS011;73250;55.594;13.020;2024-02-26T11:17:06;84.22;;;53.28;;
83326;SDS011;73250;55.594;13.020;2024-02-26T11:19:35;86.10;;;54.65;;
83326;SDS011;73250;55.594;13.020;2024-02-26T11:22:03;93.80;;;64.35;;
83326;SDS011;73250;55.594;13.020;2024-02-26T11:24:30;81.85;;;54.30;;
83326;SDS011;73250;55.594;13.020;2024-02-26T11:26:58;102.00;;;67.40;;
83326;SDS011;73250;55.594;13.020;2024-02-26T11:29:32;84.30;;;56.00;;
83326;SDS011;73250;55.594;13.020;2024-02-26T11:32:01;86.90;;;59.88;;
83326;SDS011;73250;55.594;13.020;2024-02-26T11:34:29;80.53;;;54.80;;
83326;SDS011;73250;55.594;13.020;2024-02-26T11:36:57;100.25;;;60.95;;
83326;SDS011;73250;55.594;13.020;2024-02-26T11:39:34;98.40;;;68.50;;
83326;SDS011;73250;55.594;13.020;2024-02-26T11:42:04;78.78;;;57.58;;
83326;SDS011;73250;55.594;13.020;2024-02-26T11:44:34;75.93;;;54.08;;
83326;SDS011;73250;55.594;13.020;2024-02-26T11:47:09;69.05;;;51.40;;
83326;SDS011;73250;55.594;13.020;2024-02-26T11:49:36;112.15;;;48.17;;
83326;SDS011;73250;55.594;13.020;2024-02-26T11:52:04;86.35;;;57.33;;
83326;SDS011;73250;55.594;13.020;2024-02-26T11:54:45;103.38;;;67.40;;
83326;SDS011;73250;55.594;13.020;2024-02-26T11:57:24;85.32;;;56.20;;
83326;SDS011;73250;55.594;13.020;2024-02-26T11:59:56;84.00;;;57.33;;
83326;SDS011;73250;55.594;13.020;2024-02-26T12:02:40;81.03;;;57.13;;
83326;SDS011;73250;55.594;13.020;2024-02-26T12:05:10;69.50;;;47.88;;
83326;SDS011;73250;55.594;13.020;2024-02-26T12:07:39;73.68;;;51.50;;
83326;SDS011;73250;55.594;13.020;2024-02-26T12:10:14;68.10;;;45.78;;
83326;SDS011;73250;55.594;13.020;2024-02-26T12:12:55;70.57;;;47.03;;
83326;SDS011;73250;55.594;13.020;2024-02-26T12:15:31;60.10;;;44.00;;
83326;SDS011;73250;55.594;13.020;2024-02-26T12:18:00;63.85;;;46.72;;
83326;SDS011;73250;55.594;13.020;2024-02-26T12:20:27;67.32;;;47.47;;
83326;SDS011;73250;55.594;13.020;2024-02-26T12:22:54;66.35;;;46.53;;
83326;SDS011;73250;55.594;13.020;2024-02-26T12:25:24;70.28;;;47.53;;
83326;SDS011;73250;55.594;13.020;2024-02-26T12:27:52;68.53;;;45.17;;
83326;SDS011;73250;55.594;13.020;2024-02-26T12:30:19;73.95;;;48.90;;
83326;SDS011;73250;55.594;13.020;2024-02-26T12:32:47;80.40;;;48.45;;
83326;SDS011;73250;55.594;13.020;2024-02-26T12:35:15;68.90;;;40.38;;
83326;SDS011;73250;55.594;13.020;2024-02-26T12:37:42;61.20;;;40.72;;
83326;SDS011;73250;55.594;13.020;2024-02-26T12:40:10;61.25;;;41.25;;
83326;SDS011;73250;55.594;13.020;2024-02-26T12:42:38;57.17;;;39.03;;
83326;SDS011;73250;55.594;13.020;2024-02-26T12:45:05;65.90;;;47.72;;
83326;SDS011;73250;55.594;13.020;2024-02-26T12:47:35;52.95;;;39.65;;
83326;SDS011;73250;55.594;13.020;2024-02-26T12:50:04;48.33;;;35.72;;
83326;SDS011;73250;55.594;13.020;2024-02-26T12:52:32;70.00;;;47.08;;
83326;SDS011;73250;55.594;13.020;2024-02-26T12:54:59;71.28;;;49.15;;
83326;SDS011;73250;55.594;13.020;2024-02-26T12:57:28;69.43;;;49.03;;
83326;SDS011;73250;55.594;13.020;2024-02-26T12:59:56;56.83;;;39.67;;
83326;SDS011;73250;55.594;13.020;2024-02-26T13:02:23;47.72;;;35.20;;
83326;SDS011;73250;55.594;13.020;2024-02-26T13:04:50;63.20;;;43.97;;
83326;SDS011;73250;55.594;13.020;2024-02-26T13:07:18;67.97;;;51.40;;
83326;SDS011;73250;55.594;13.020;2024-02-26T13:09:46;69.72;;;51.97;;
83326;SDS011;73250;55.594;13.020;2024-02-26T13:12:13;63.35;;;47.38;;
83326;SDS011;73250;55.594;13.020;2024-02-26T13:14:40;64.53;;;47.78;;
83326;SDS011;73250;55.594;13.020;2024-02-26T13:17:06;62.15;;;44.78;;
83326;SDS011;73250;55.594;13.020;2024-02-26T13:19:34;56.15;;;41.60;;
83326;SDS011;73250;55.594;13.020;2024-02-26T13:22:04;56.65;;;43.38;;
83326;SDS011;73250;55.594;13.020;2024-02-26T13:24:33;61.38;;;43.97;;
83326;SDS011;73250;55.594;13.020;2024-02-26T13:27:00;60.00;;;44.47;;
83326;SDS011;73250;55.594;13.020;2024-02-26T13:29:28;52.75;;;39.70;;
83326;SDS011;73250;55.594;13.020;2024-02-26T13:31:55;53.25;;;40.53;;
83326;SDS011;73250;55.594;13.020;2024-02-26T13:34:23;45.30;;;35.17;;
83326;SDS011;73250;55.594;13.020;2024-02-26T13:36:51;61.40;;;43.60;;
83326;SDS011;73250;55.594;13.020;2024-02-26T13:39:22;51.60;;;40.30;;
83326;SDS011;73250;55.594;13.020;2024-02-26T13:41:51;58.22;;;46.03;;
83326;SDS011;73250;55.594;13.020;2024-02-26T13:44:18;53.95;;;41.47;;
83326;SDS011;73250;55.594;13.020;2024-02-26T13:46:45;58.63;;;42.92;;
83326;SDS011;73250;55.594;13.020;2024-02-26T13:49:12;48.70;;;39.42;;
83326;SDS011;73250;55.594;13.020;2024-02-26T13:51:39;48.67;;;37.92;;
83326;SDS011;73250;55.594;13.020;2024-02-26T13:54:06;57.35;;;45.70;;
83326;SDS011;73250;55.594;13.020;2024-02-26T13:56:34;49.85;;;37.90;;
83326;SDS011;73250;55.594;13.020;2024-02-26T13:59:03;52.15;;;39.50;;
83326;SDS011;73250;55.594;13.020;2024-02-26T14:01:30;62.97;;;48.10;;
83326;SDS011;73250;55.594;13.020;2024-02-26T14:03:58;69.45;;;49.45;;
83326;SDS011;73250;55.594;13.020;2024-02-26T14:06:26;196.30;;;95.95;;
83326;SDS011;73250;55.594;13.020;2024-02-26T14:08:53;78.32;;;51.85;;
83326;SDS011;73250;55.594;13.020;2024-02-26T14:11:20;74.78;;;51.13;;
83326;SDS011;73250;55.594;13.020;2024-02-26T14:13:47;72.40;;;49.83;;
83326;SDS011;73250;55.594;13.020;2024-02-26T14:16:15;69.25;;;47.28;;
83326;SDS011;73250;55.594;13.020;2024-02-26T14:18:41;66.80;;;47.83;;
83326;SDS011;73250;55.594;13.020;2024-02-26T14:21:10;80.90;;;52.65;;
83326;SDS011;73250;55.594;13.020;2024-02-26T14:23:37;83.15;;;55.03;;
83326;SDS011;73250;55.594;13.020;2024-02-26T14:26:03;66.53;;;47.28;;